createdAt,value
2018-07-16T00:00:27.948Z,2.63
2018-07-16T00:02:56.332Z,2.77
2018-07-16T00:05:24.692Z,2.40
2018-07-16T00:07:53.028Z,2.73
2018-07-16T00:10:21.417Z,3.07
2018-07-16T00:12:49.800Z,2.70
2018-07-16T00:15:18.160Z,3.33
2018-07-16T00:17:46.253Z,3.17
2018-07-16T00:20:14.608Z,2.80
2018-07-16T00:22:42.696Z,3.20
2018-07-16T00:25:11.077Z,2.73
2018-07-16T00:27:39.413Z,3.50
2018-07-16T00:30:07.808Z,3.20
2018-07-16T00:32:36.168Z,3.23
2018-07-16T00:35:04.564Z,3.17
2018-07-16T00:37:33.209Z,3.20
2018-07-16T00:40:01.557Z,3.33
2018-07-16T00:42:29.885Z,2.80
2018-07-16T00:44:58.213Z,2.77
2018-07-16T00:47:26.560Z,3.03
2018-07-16T00:49:55.328Z,3.10
2018-07-16T00:52:23.694Z,3.27
2018-07-16T00:54:52.089Z,2.90
2018-07-16T00:57:20.448Z,2.60
2018-07-16T00:59:48.812Z,3.03
2018-07-16T01:02:17.160Z,2.97
2018-07-16T01:04:45.224Z,3.03
2018-07-16T01:07:13.719Z,2.60
2018-07-16T01:09:42.337Z,3.17
2018-07-16T01:12:10.679Z,2.67
2018-07-16T01:14:38.788Z,2.80
2018-07-16T01:17:07.155Z,2.87
2018-07-16T01:19:35.532Z,2.80
2018-07-16T01:22:03.908Z,3.00
2018-07-16T01:24:32.276Z,2.33
2018-07-16T01:27:00.808Z,2.73
2018-07-16T01:29:29.595Z,2.70
2018-07-16T01:31:58.080Z,2.80
2018-07-16T01:34:26.453Z,2.57
2018-07-16T01:36:54.868Z,2.60
2018-07-16T01:39:23.268Z,2.40
2018-07-16T01:41:51.616Z,2.40
2018-07-16T01:44:19.980Z,2.47
2018-07-16T01:46:48.352Z,2.17
2018-07-16T01:49:16.749Z,2.57
2018-07-16T01:51:45.091Z,2.63
2018-07-16T01:54:13.420Z,2.30
2018-07-16T01:56:41.507Z,2.40
2018-07-16T01:59:10.044Z,2.20
2018-07-16T02:01:38.402Z,2.00
2018-07-16T02:04:06.795Z,2.50
2018-07-16T02:06:35.387Z,2.40
2018-07-16T02:09:04.532Z,2.40
2018-07-16T02:11:32.968Z,2.17
2018-07-16T02:14:01.324Z,2.70
2018-07-16T02:16:29.660Z,2.30
2018-07-16T02:18:57.759Z,2.17
2018-07-16T02:21:26.092Z,2.10
2018-07-16T02:23:54.428Z,2.20
2018-07-16T02:26:22.773Z,2.27
2018-07-16T02:28:50.843Z,2.20
2018-07-16T02:31:19.238Z,2.40
2018-07-16T02:33:47.589Z,2.10
2018-07-16T02:36:15.910Z,2.20
2018-07-16T02:38:44.344Z,2.23
2018-07-16T02:41:12.692Z,2.10
2018-07-16T02:43:41.080Z,2.10
2018-07-16T02:46:09.412Z,2.13
2018-07-16T02:48:37.732Z,1.90
2018-07-16T02:51:06.100Z,2.00
2018-07-16T02:53:34.671Z,2.17
2018-07-16T02:56:03.049Z,2.67
2018-07-16T02:58:31.516Z,2.20
2018-07-16T03:01:00.853Z,2.00
2018-07-16T03:03:29.260Z,2.10
2018-07-16T03:05:57.612Z,2.00
2018-07-16T03:08:25.948Z,2.37
2018-07-16T03:10:54.328Z,2.63
2018-07-16T03:13:22.728Z,2.30
2018-07-16T03:15:51.156Z,2.40
2018-07-16T03:18:19.511Z,2.27
2018-07-16T03:20:47.852Z,2.40
2018-07-16T03:23:16.189Z,2.07
2018-07-16T03:25:44.532Z,2.60
2018-07-16T03:28:12.887Z,2.33
2018-07-16T03:30:41.243Z,2.60
2018-07-16T03:33:09.634Z,2.43
2018-07-16T03:35:37.966Z,2.40
2018-07-16T03:38:06.602Z,2.53
2018-07-16T03:40:34.947Z,2.50
2018-07-16T03:43:03.296Z,2.30
2018-07-16T03:45:31.653Z,2.27
2018-07-16T03:48:00.030Z,2.60
2018-07-16T03:50:28.433Z,2.67
2018-07-16T03:52:56.776Z,2.53
2018-07-16T03:55:25.136Z,2.37
2018-07-16T03:57:53.545Z,2.13
2018-07-16T04:00:21.916Z,2.40
2018-07-16T04:02:50.246Z,2.90
2018-07-16T04:05:18.612Z,2.90
2018-07-16T04:07:46.948Z,2.50
2018-07-16T04:10:15.389Z,2.73
2018-07-16T04:12:43.737Z,3.10
2018-07-16T04:15:12.099Z,2.90
2018-07-16T04:17:40.456Z,2.63
2018-07-16T04:20:09.032Z,2.70
2018-07-16T04:22:37.107Z,2.70
2018-07-16T04:25:05.436Z,2.70
2018-07-16T04:27:34.094Z,3.87
2018-07-16T04:30:02.464Z,2.70
2018-07-16T04:32:30.840Z,2.40
2018-07-16T04:34:59.172Z,3.40
2018-07-16T04:37:27.511Z,2.63
2018-07-16T04:39:55.904Z,3.00
2018-07-16T04:42:24.267Z,3.03
2018-07-16T04:44:52.614Z,2.00
2018-07-16T04:47:21.015Z,2.80
2018-07-16T04:49:49.352Z,2.80
2018-07-16T04:52:17.704Z,2.47
2018-07-16T04:54:46.077Z,2.50
2018-07-16T04:57:15.120Z,2.70
2018-07-16T04:59:43.516Z,2.30
2018-07-16T05:02:11.912Z,2.50
2018-07-16T05:04:40.257Z,2.50
2018-07-16T05:07:08.692Z,2.47
2018-07-16T05:09:36.988Z,2.30
2018-07-16T05:12:12.148Z,2.73
2018-07-16T05:14:40.522Z,2.53
2018-07-16T05:17:08.591Z,3.10
2018-07-16T05:19:36.950Z,2.83
2018-07-16T05:22:05.351Z,2.50
2018-07-16T05:24:33.446Z,3.07
2018-07-16T05:27:01.834Z,2.60
2018-07-16T05:29:30.208Z,2.83
2018-07-16T05:31:58.609Z,3.40
2018-07-16T05:34:27.187Z,2.93
2018-07-16T05:36:55.535Z,3.07
2018-07-16T05:39:23.864Z,3.77
2018-07-16T05:41:52.339Z,3.23
2018-07-16T05:44:20.676Z,2.90
2018-07-16T05:46:49.173Z,3.33
2018-07-16T05:49:17.745Z,3.43
2018-07-16T05:51:46.325Z,3.50
2018-07-16T05:54:14.712Z,3.50
2018-07-16T05:56:43.413Z,3.70
2018-07-16T05:59:11.868Z,3.60
2018-07-16T06:01:40.260Z,3.90
2018-07-16T06:04:08.736Z,4.30
2018-07-16T06:06:37.099Z,4.07
2018-07-16T06:09:05.926Z,4.20
2018-07-16T06:11:34.312Z,3.70
2018-07-16T06:14:02.748Z,3.97
2018-07-16T06:16:30.840Z,4.90
2018-07-16T06:18:59.256Z,4.50
2018-07-16T06:21:27.636Z,4.87
2018-07-16T06:23:56.021Z,4.37
2018-07-16T06:26:24.404Z,5.07
2018-07-16T06:28:52.759Z,4.37
2018-07-16T06:31:21.120Z,4.63
2018-07-16T06:33:49.473Z,4.30
2018-07-16T06:36:17.545Z,4.93
2018-07-16T06:38:46.191Z,4.60
2018-07-16T06:41:14.815Z,3.80
2018-07-16T06:43:42.987Z,5.47
2018-07-16T06:46:11.208Z,4.57
2018-07-16T06:48:42.027Z,4.80
2018-07-16T06:51:10.603Z,4.90
2018-07-16T06:53:38.982Z,4.10
2018-07-16T06:56:07.645Z,3.50
2018-07-16T06:58:35.783Z,3.67
2018-07-16T07:01:04.167Z,3.90
2018-07-16T07:03:32.510Z,3.43
2018-07-16T07:06:00.857Z,4.20
2018-07-16T07:08:28.944Z,3.27
2018-07-16T07:10:57.348Z,3.80
2018-07-16T07:13:25.761Z,3.40
2018-07-16T07:15:54.212Z,3.57
2018-07-16T07:18:22.543Z,3.00
2018-07-16T07:20:50.920Z,3.10
2018-07-16T07:23:19.432Z,3.03
2018-07-16T07:25:47.768Z,2.60
2018-07-16T07:28:16.128Z,2.70
2018-07-16T07:30:44.506Z,2.83
2018-07-16T07:33:12.844Z,2.90
2018-07-16T07:35:41.210Z,3.77
2018-07-16T07:38:09.573Z,2.97
2018-07-16T07:40:37.919Z,2.37
2018-07-16T07:43:06.473Z,2.50
2018-07-16T07:45:34.854Z,2.33
2018-07-16T07:48:03.188Z,1.93
2018-07-16T07:50:31.575Z,2.73
2018-07-16T07:52:59.940Z,1.90
2018-07-16T07:55:28.378Z,2.40
2018-07-16T07:57:56.656Z,2.20
2018-07-16T08:00:25.004Z,2.53
2018-07-16T08:02:53.056Z,1.93
2018-07-16T08:05:21.628Z,2.40
2018-07-16T08:07:50.319Z,1.90
2018-07-16T08:10:18.653Z,2.00
2018-07-16T08:12:47.000Z,1.73
2018-07-16T08:15:15.446Z,1.97
2018-07-16T08:17:43.791Z,2.20
2018-07-16T08:20:12.169Z,1.90
2018-07-16T08:22:40.524Z,2.20
2018-07-16T08:25:09.099Z,1.80
2018-07-16T08:27:37.477Z,1.73
2018-07-16T08:30:05.890Z,1.73
2018-07-16T08:32:34.239Z,2.70
2018-07-16T08:35:02.636Z,2.13
2018-07-16T08:37:31.012Z,1.80
2018-07-16T08:39:59.369Z,1.90
2018-07-16T08:42:28.194Z,2.10
2018-07-16T08:44:56.540Z,1.70
2018-07-16T08:47:24.881Z,1.80
2018-07-16T08:49:53.276Z,2.10
2018-07-16T08:52:21.608Z,1.70
2018-07-16T08:54:49.945Z,1.70
2018-07-16T08:57:18.271Z,1.80
2018-07-16T08:59:46.612Z,2.63
2018-07-16T09:02:14.948Z,1.83
2018-07-16T09:04:43.309Z,1.60
2018-07-16T09:07:11.695Z,2.80
2018-07-16T09:09:40.016Z,1.90
2018-07-16T09:12:08.596Z,1.60
2018-07-16T09:14:36.664Z,1.70
2018-07-16T09:17:05.012Z,1.90
2018-07-16T09:19:33.532Z,1.90
2018-07-16T09:22:01.891Z,2.20
2018-07-16T09:24:30.236Z,1.47
2018-07-16T09:26:59.237Z,1.63
2018-07-16T09:29:27.600Z,1.90
2018-07-16T09:31:55.964Z,1.70
2018-07-16T09:34:24.372Z,1.93
2018-07-16T09:36:53.145Z,2.20
2018-07-16T09:39:21.476Z,2.77
2018-07-16T09:41:49.868Z,2.87
2018-07-16T09:44:17.973Z,3.67
2018-07-16T09:46:46.308Z,1.60
2018-07-16T09:49:14.688Z,2.07
2018-07-16T09:51:42.767Z,1.80
2018-07-16T09:54:11.272Z,3.20
2018-07-16T09:56:39.588Z,2.07
2018-07-16T09:59:07.979Z,9.70
2018-07-16T10:01:41.611Z,1.60
2018-07-16T10:04:09.947Z,2.87
2018-07-16T10:06:38.304Z,2.90
2018-07-16T10:09:07.280Z,1.93
2018-07-16T10:11:35.747Z,3.87
2018-07-16T10:14:04.296Z,2.00
2018-07-16T10:16:32.960Z,2.67
2018-07-16T10:19:01.685Z,2.30
2018-07-16T10:21:30.015Z,2.83
2018-07-16T10:23:58.417Z,1.80
2018-07-16T10:26:26.830Z,2.10
2018-07-16T10:28:54.892Z,1.77
2018-07-16T10:31:23.232Z,1.80
2018-07-16T10:33:51.584Z,2.10
2018-07-16T10:36:19.978Z,2.00
2018-07-16T10:38:48.343Z,1.70
2018-07-16T10:41:16.684Z,2.53
2018-07-16T10:43:44.763Z,1.90
2018-07-16T10:46:12.875Z,1.67
2018-07-16T10:48:41.203Z,2.30
2018-07-16T10:51:09.535Z,2.30
2018-07-16T10:53:38.734Z,2.13
2018-07-16T10:56:07.200Z,2.30
2018-07-16T10:58:35.597Z,2.07
2018-07-16T11:01:03.940Z,2.23
2018-07-16T11:03:32.003Z,1.80
2018-07-16T11:06:04.413Z,2.20
2018-07-16T11:08:32.760Z,2.13
2018-07-16T11:11:00.915Z,1.87
2018-07-16T11:13:31.967Z,1.80
2018-07-16T11:16:01.248Z,1.70
2018-07-16T11:18:30.896Z,2.13
2018-07-16T11:20:59.325Z,1.90
2018-07-16T11:23:27.719Z,1.80
2018-07-16T11:25:56.433Z,1.67
2018-07-16T11:28:24.841Z,2.17
2018-07-16T11:30:53.640Z,2.30
2018-07-16T11:33:22.392Z,2.10
2018-07-16T11:35:50.778Z,2.00
2018-07-16T11:38:19.209Z,1.70
2018-07-16T11:40:47.649Z,1.80
2018-07-16T11:43:16.181Z,1.70
2018-07-16T11:45:44.552Z,2.10
2018-07-16T11:48:12.969Z,2.23
2018-07-16T11:50:41.084Z,2.33
2018-07-16T11:53:09.432Z,1.97
2018-07-16T11:55:37.836Z,2.17
2018-07-16T11:58:06.177Z,2.00
2018-07-16T12:00:34.633Z,1.97
2018-07-16T12:03:02.989Z,2.20
2018-07-16T12:05:31.333Z,1.90
2018-07-16T12:07:59.695Z,2.67
2018-07-16T12:10:27.751Z,2.50
2018-07-16T12:12:56.184Z,2.70
2018-07-16T12:15:24.559Z,2.30
2018-07-16T12:17:52.888Z,3.87
2018-07-16T12:20:21.298Z,2.33
2018-07-16T12:22:49.616Z,2.27
2018-07-16T12:25:17.989Z,2.90
2018-07-16T12:27:46.320Z,4.90
2018-07-16T12:30:14.487Z,2.17
2018-07-16T12:32:42.819Z,2.70
2018-07-16T12:35:11.257Z,2.37
2018-07-16T12:37:39.616Z,1.90
2018-07-16T12:40:07.700Z,2.30
2018-07-16T12:42:36.033Z,2.20
2018-07-16T12:45:04.456Z,2.00
2018-07-16T12:47:32.797Z,2.80
2018-07-16T12:50:01.176Z,1.90
2018-07-16T12:52:29.534Z,2.27
2018-07-16T12:54:57.934Z,2.27
2018-07-16T12:57:26.377Z,3.10
2018-07-16T12:59:54.765Z,3.87
2018-07-16T13:02:23.088Z,2.90
2018-07-16T13:04:51.451Z,2.30
2018-07-16T13:07:19.804Z,2.40
2018-07-16T13:09:48.132Z,2.83
2018-07-16T13:12:16.228Z,3.10
2018-07-16T13:14:44.541Z,2.60
2018-07-16T13:17:12.936Z,2.70
2018-07-16T13:19:41.300Z,2.40
2018-07-16T13:22:09.628Z,2.97
2018-07-16T13:24:37.691Z,7.80
2018-07-16T13:27:05.810Z,3.10
2018-07-16T13:29:34.152Z,2.23
2018-07-16T13:32:02.336Z,2.20
2018-07-16T13:34:30.800Z,2.13
2018-07-16T13:36:58.881Z,2.47
2018-07-16T13:39:26.936Z,2.60
2018-07-16T13:41:55.286Z,2.80
2018-07-16T13:44:23.655Z,2.23
2018-07-16T13:46:52.126Z,2.67
2018-07-16T13:49:20.429Z,2.30
2018-07-16T13:51:48.800Z,2.40
2018-07-16T13:54:17.112Z,2.83
2018-07-16T13:56:45.481Z,2.60
2018-07-16T13:59:13.843Z,2.63
2018-07-16T14:01:42.184Z,6.50
2018-07-16T14:04:10.504Z,5.07
2018-07-16T14:06:38.864Z,2.60
2018-07-16T14:09:08.132Z,4.37
2018-07-16T14:11:36.512Z,2.57
2018-07-16T14:14:05.204Z,4.30
2018-07-16T14:16:33.532Z,2.43
2018-07-16T14:19:01.888Z,2.53
2018-07-16T14:21:30.252Z,3.50
2018-07-16T14:23:58.552Z,2.87
2018-07-16T14:26:26.898Z,2.30
2018-07-16T14:28:55.252Z,2.70
2018-07-16T14:31:23.307Z,2.40
2018-07-16T14:33:51.724Z,2.80
2018-07-16T14:36:20.080Z,2.40
2018-07-16T14:38:48.367Z,2.50
2018-07-16T14:41:16.687Z,2.97
2018-07-16T14:43:45.033Z,3.07
2018-07-16T14:46:13.357Z,2.60
2018-07-16T14:48:42.110Z,2.93
2018-07-16T14:51:10.508Z,2.70
2018-07-16T14:53:38.825Z,2.40
2018-07-16T14:56:07.148Z,2.40
2018-07-16T14:58:35.508Z,2.83
2018-07-16T15:01:03.676Z,2.60
2018-07-16T15:03:31.783Z,2.63
2018-07-16T15:06:00.131Z,2.47
2018-07-16T15:08:28.642Z,2.30
2018-07-16T15:10:57.014Z,2.63
2018-07-16T15:13:25.407Z,3.37
2018-07-16T15:15:53.736Z,2.33
2018-07-16T15:18:21.795Z,2.50
2018-07-16T15:20:50.402Z,3.10
2018-07-16T15:23:18.652Z,2.83
2018-07-16T15:25:47.020Z,2.90
2018-07-16T15:28:15.359Z,2.80
2018-07-16T15:30:43.716Z,2.83
2018-07-16T15:33:12.040Z,3.50
2018-07-16T15:35:40.411Z,2.97
2018-07-16T15:38:08.787Z,3.20
2018-07-16T15:40:37.140Z,5.20
2018-07-16T15:43:05.525Z,4.00
2018-07-16T15:45:33.876Z,3.10
2018-07-16T15:48:02.208Z,3.00
2018-07-16T15:50:30.560Z,2.60
2018-07-16T15:52:58.896Z,2.60
2018-07-16T15:55:27.303Z,2.90
2018-07-16T15:57:55.932Z,2.30
2018-07-16T16:00:24.388Z,2.90
2018-07-16T16:02:52.732Z,4.17
2018-07-16T16:05:21.149Z,3.17
2018-07-16T16:07:49.649Z,3.17
2018-07-16T16:10:18.060Z,3.40
2018-07-16T16:12:46.440Z,3.63
2018-07-16T16:15:16.936Z,3.63
2018-07-16T16:17:46.034Z,4.00
2018-07-16T16:20:14.704Z,3.50
2018-07-16T16:22:43.276Z,2.97
2018-07-16T16:25:12.400Z,4.63
2018-07-16T16:27:41.263Z,4.80
2018-07-16T16:30:09.948Z,4.87
2018-07-16T16:32:39.418Z,4.90
2018-07-16T16:35:08.439Z,5.67
2018-07-16T16:37:38.580Z,5.43
2018-07-16T16:40:07.280Z,5.53
2018-07-16T16:42:35.625Z,5.70
2018-07-16T16:45:05.156Z,7.03
2018-07-16T16:47:33.960Z,7.27
2018-07-16T16:50:02.740Z,7.70
2018-07-16T16:52:31.482Z,6.87
2018-07-16T16:55:00.078Z,7.10
2018-07-16T16:57:28.647Z,5.83
2018-07-16T16:59:57.326Z,6.57
2018-07-16T17:02:26.183Z,7.73
2018-07-16T17:04:54.426Z,7.97
2018-07-16T17:07:23.160Z,9.23
2018-07-16T17:09:51.827Z,11.73
2018-07-16T17:12:20.797Z,12.37
2018-07-16T17:14:49.583Z,11.63
2018-07-16T17:17:18.168Z,10.67
2018-07-16T17:19:46.964Z,9.53
2018-07-16T17:22:15.678Z,9.77
2018-07-16T17:24:44.371Z,10.53
2018-07-16T17:27:12.682Z,11.00
2018-07-16T17:29:41.375Z,11.47
2018-07-16T17:32:10.056Z,14.30
2018-07-16T17:34:38.685Z,13.33
2018-07-16T17:37:07.622Z,14.30
2018-07-16T17:39:36.472Z,12.93
2018-07-16T17:42:04.891Z,11.17
2018-07-16T17:44:33.612Z,10.77
2018-07-16T17:47:02.328Z,9.63
2018-07-16T17:49:30.874Z,10.80
2018-07-16T17:51:59.665Z,9.63
2018-07-16T17:54:28.358Z,9.00
2018-07-16T17:56:57.069Z,9.23
2018-07-16T17:59:25.829Z,9.93
2018-07-16T18:01:54.520Z,12.27
2018-07-16T18:04:23.124Z,12.03
2018-07-16T18:06:51.808Z,11.20
2018-07-16T18:09:20.401Z,11.10
2018-07-16T18:11:49.055Z,12.00
2018-07-16T18:14:17.769Z,10.90
2018-07-16T18:16:46.654Z,10.17
2018-07-16T18:19:15.430Z,10.87
2018-07-16T18:21:44.346Z,11.53
2018-07-16T18:24:13.109Z,11.07
2018-07-16T18:26:42.046Z,12.50
2018-07-16T18:29:10.706Z,12.20
2018-07-16T18:31:39.416Z,11.23
2018-07-16T18:34:08.096Z,11.73
2018-07-16T18:36:36.567Z,23.47
2018-07-16T18:39:07.580Z,10.00
2018-07-16T18:41:36.149Z,12.53
2018-07-16T18:44:04.762Z,12.17
2018-07-16T18:46:33.753Z,8.70
2018-07-16T18:49:02.428Z,10.20
2018-07-16T18:51:31.113Z,9.33
2018-07-16T18:53:59.957Z,8.97
2018-07-16T18:56:28.712Z,7.10
2018-07-16T18:58:57.443Z,7.73
2018-07-16T19:01:26.144Z,6.47
2018-07-16T19:03:55.033Z,6.47
2018-07-16T19:06:23.913Z,6.17
2018-07-16T19:08:52.525Z,6.43
2018-07-16T19:11:21.115Z,6.10
2018-07-16T19:13:49.830Z,6.10
2018-07-16T19:16:18.610Z,5.30
2018-07-16T19:18:47.342Z,4.80
2018-07-16T19:21:15.996Z,5.23
2018-07-16T19:23:45.020Z,5.63
2018-07-16T19:26:13.907Z,5.80
2018-07-16T19:28:42.503Z,5.77
2018-07-16T19:31:10.717Z,6.10
2018-07-16T19:33:39.264Z,6.67
2018-07-16T19:36:07.808Z,7.00
2018-07-16T19:38:36.322Z,6.73
2018-07-16T19:41:04.889Z,7.10
2018-07-16T19:43:33.271Z,6.93
2018-07-16T19:46:01.396Z,7.07
2018-07-16T19:48:29.921Z,7.20
2018-07-16T19:50:58.439Z,7.47
2018-07-16T19:53:26.959Z,6.77
2018-07-16T19:55:55.612Z,6.87
2018-07-16T19:58:24.092Z,7.00
2018-07-16T20:00:52.585Z,7.10
2018-07-16T20:03:21.227Z,7.07
2018-07-16T20:05:49.760Z,7.87
2018-07-16T20:08:18.287Z,6.43
2018-07-16T20:10:46.431Z,6.90
2018-07-16T20:13:14.878Z,7.00
2018-07-16T20:15:43.466Z,7.70
2018-07-16T20:18:11.709Z,7.33
2018-07-16T20:20:50.479Z,7.47
2018-07-16T20:23:18.748Z,7.15
2018-07-16T20:25:47.475Z,8.30
2018-07-16T20:28:16.456Z,7.03
2018-07-16T20:30:45.421Z,7.90
2018-07-16T20:33:14.163Z,7.93
2018-07-16T20:35:43.109Z,6.90
2018-07-16T20:38:11.776Z,7.50
2018-07-16T20:40:40.576Z,6.70
2018-07-16T20:43:09.316Z,6.70
2018-07-16T20:45:47.626Z,7.20
2018-07-16T20:48:47.568Z,6.43
2018-07-16T20:51:27.124Z,8.20
2018-07-16T20:57:11.650Z,7.53
2018-07-16T20:59:57.543Z,7.00
2018-07-16T21:02:31.862Z,6.30
2018-07-16T21:05:07.520Z,7.80
2018-07-16T21:07:39.210Z,7.30
2018-07-16T21:10:12.810Z,6.33
2018-07-16T21:12:52.127Z,7.30
2018-07-16T21:15:22.341Z,6.10
2018-07-16T21:17:54.161Z,5.93
2018-07-16T21:20:23.705Z,6.47
2018-07-16T21:22:52.308Z,5.60
2018-07-16T21:25:21.032Z,5.70
2018-07-16T21:27:49.858Z,6.07
2018-07-16T21:30:18.262Z,5.83
2018-07-16T21:32:46.825Z,6.00
2018-07-16T21:35:15.569Z,5.70
2018-07-16T21:37:44.455Z,7.10
2018-07-16T21:40:13.184Z,6.50
2018-07-16T21:42:41.839Z,6.33
2018-07-16T21:45:10.580Z,6.30
2018-07-16T21:47:39.209Z,6.43
2018-07-16T21:50:08.024Z,5.33
2018-07-16T21:52:36.988Z,5.40
2018-07-16T21:55:05.896Z,6.20
2018-07-16T21:57:34.689Z,6.17
2018-07-16T22:00:03.409Z,5.97
2018-07-16T22:02:32.104Z,6.00
2018-07-16T22:05:01.077Z,5.60
2018-07-16T22:07:30.053Z,7.47
2018-07-16T22:09:58.971Z,8.83
2018-07-16T22:12:27.676Z,9.00
2018-07-16T22:14:56.372Z,8.00
2018-07-16T22:17:25.182Z,8.20
2018-07-16T22:19:53.909Z,7.60
2018-07-16T22:22:22.673Z,9.00
2018-07-16T22:24:51.418Z,9.00
2018-07-16T22:27:20.145Z,8.93
2018-07-16T22:29:48.925Z,9.53
2018-07-16T22:32:17.698Z,10.00
2018-07-16T22:34:46.540Z,9.90
2018-07-16T22:37:15.482Z,9.50
2018-07-16T22:39:44.120Z,10.17
2018-07-16T22:42:12.774Z,9.20
2018-07-16T22:44:41.337Z,9.67
2018-07-16T22:47:10.013Z,9.27
2018-07-16T22:49:38.876Z,9.87
2018-07-16T22:52:07.266Z,10.23
2018-07-16T22:54:36.130Z,9.77
2018-07-16T22:57:04.602Z,10.17
2018-07-16T22:59:32.942Z,10.47
2018-07-16T23:02:01.350Z,10.10
2018-07-16T23:04:29.720Z,10.50
2018-07-16T23:06:58.096Z,9.40
2018-07-16T23:09:26.489Z,9.50
2018-07-16T23:11:54.841Z,8.20
2018-07-16T23:14:23.216Z,9.20
2018-07-16T23:16:51.664Z,8.97
2018-07-16T23:19:20.029Z,9.03
2018-07-16T23:21:48.376Z,8.30
2018-07-16T23:24:16.751Z,8.20
2018-07-16T23:26:45.093Z,8.57
2018-07-16T23:29:13.491Z,7.87
2018-07-16T23:31:41.847Z,8.10
2018-07-16T23:34:10.268Z,8.63
2018-07-16T23:36:38.645Z,8.40
2018-07-16T23:39:09.356Z,8.70
2018-07-16T23:41:37.695Z,8.37
2018-07-16T23:44:06.076Z,8.80
2018-07-16T23:46:34.155Z,8.73
2018-07-16T23:49:02.251Z,7.93
2018-07-16T23:51:30.655Z,8.50
2018-07-16T23:53:59.100Z,8.00
2018-07-16T23:56:27.530Z,7.80
2018-07-16T23:58:55.932Z,8.30
